Time,TemperatureF,DewpointF,PressureIn,WindDirection,WindDirectionDegrees,WindSpeedMPH,WindSpeedGustMPH,Humidity,HourlyPrecipIn,Conditions,Clouds,dailyrainin,SolarRadiationWatts/m^2,SoftwareType,DateUTC
2013-09-15 00:01:00,57.0,45.0,-100.00,ENE,68,0.0,2.0,65,0.00,,,0.00,0.000000,,2013-09-15 07:01:00,
2013-09-15 00:02:00,56.0,45.0,-100.00,ESE,112,1.0,3.0,66,0.00,,,0.00,0.000000,,2013-09-15 07:02:00,
2013-09-15 00:42:00,56.0,45.0,-100.00,ESE,112,1.0,3.0,66,0.00,,,0.00,0.000000,,2013-09-15 07:42:00,
2013-09-15 00:52:00,56.0,45.0,-100.00,ESE,112,1.0,3.0,66,0.00,,,0.00,0.000000,,2013-09-15 07:52:00,
2013-09-15 01:02:00,57.0,42.0,-100.00,ESE,121,0.0,3.0,58,-99.99,,,0.00,0.000000,,2013-09-15 08:02:00,
2013-09-15 01:43:00,57.0,42.0,-100.00,ESE,121,0.0,3.0,58,-99.99,,,0.00,0.000000,,2013-09-15 08:43:00,
2013-09-15 01:52:00,57.0,42.0,-100.00,ESE,121,0.0,3.0,58,-99.99,,,0.00,0.000000,,2013-09-15 08:52:00,
2013-09-15 02:02:00,56.0,40.0,-100.00,East,97,1.0,3.0,54,0.00,,,0.00,0.000000,,2013-09-15 09:02:00,
2013-09-15 02:22:00,56.0,40.0,-100.00,East,97,1.0,3.0,54,0.00,,,0.00,0.000000,,2013-09-15 09:22:00,
2013-09-15 02:33:00,56.0,40.0,-100.00,East,97,1.0,3.0,54,0.00,,,0.00,0.000000,,2013-09-15 09:33:00,
2013-09-15 02:44:00,56.0,40.0,-100.00,East,97,1.0,3.0,54,0.00,,,0.00,0.000000,,2013-09-15 09:44:00,
2013-09-15 02:53:00,56.0,40.0,-100.00,East,97,1.0,3.0,54,0.00,,,0.00,0.000000,,2013-09-15 09:53:00,
2013-09-15 03:23:00,55.0,39.0,-100.00,East,99,1.0,4.0,54,-99.99,,,0.00,0.000000,,2013-09-15 10:23:00,
2013-09-15 03:32:00,55.0,39.0,-100.00,East,99,1.0,4.0,54,-99.99,,,0.00,0.000000,,2013-09-15 10:32:00,
2013-09-15 04:02:00,55.0,40.0,-100.00,ESE,102,1.0,4.0,57,-99.99,,,0.00,0.000000,,2013-09-15 11:02:00,
2013-09-15 04:42:00,55.0,40.0,-100.00,ESE,102,1.0,4.0,57,-99.99,,,0.00,0.000000,,2013-09-15 11:42:00,
2013-09-15 04:52:00,55.0,40.0,-100.00,ESE,102,1.0,4.0,57,-99.99,,,0.00,0.000000,,2013-09-15 11:52:00,
2013-09-15 05:42:00,54.0,41.0,-100.00,ESE,117,2.0,5.0,61,0.00,,,-99.99,0.000000,,2013-09-15 12:42:00,
2013-09-15 05:52:00,54.0,41.0,-100.00,ESE,117,2.0,5.0,61,0.00,,,-99.99,0.000000,,2013-09-15 12:52:00,
2013-09-15 06:01:00,54.0,41.0,-100.00,ESE,117,2.0,5.0,61,0.00,,,-99.99,0.000000,,2013-09-15 13:01:00,
2013-09-15 12:02:00,80.0,39.0,-100.00,South,180,7.0,19.0,23,0.00,,,0.00,752.000000,,2013-09-15 19:02:00,
2013-09-15 12:42:00,80.0,39.0,-100.00,South,180,7.0,19.0,23,0.00,,,0.00,752.000000,,2013-09-15 19:42:00,
2013-09-15 12:52:00,80.0,39.0,-100.00,South,180,7.0,19.0,23,0.00,,,0.00,752.000000,,2013-09-15 19:52:00,
2013-09-15 13:02:00,82.0,39.0,-100.00,SSW,213,7.0,17.0,22,0.00,,,0.00,827.000000,,2013-09-15 20:02:00,
2013-09-15 13:22:00,82.0,39.0,-100.00,SSW,213,7.0,17.0,22,0.00,,,0.00,827.000000,,2013-09-15 20:22:00,
2013-09-15 13:32:00,82.0,39.0,-100.00,SSW,213,7.0,17.0,22,0.00,,,0.00,827.000000,,2013-09-15 20:32:00,
2013-09-15 13:42:00,82.0,39.0,-100.00,SSW,213,7.0,17.0,22,0.00,,,0.00,827.000000,,2013-09-15 20:42:00,
2013-09-15 13:53:00,82.0,39.0,-100.00,SSW,213,7.0,17.0,22,0.00,,,0.00,827.000000,,2013-09-15 20:53:00,
2013-09-15 14:02:00,83.0,41.0,-100.00,SSW,206,6.0,18.0,23,0.00,,,0.00,848.000000,,2013-09-15 21:02:00,
2013-09-15 14:22:00,83.0,41.0,-100.00,SSW,206,6.0,18.0,23,0.00,,,0.00,848.000000,,2013-09-15 21:22:00,
2013-09-15 14:34:00,83.0,41.0,-100.00,SSW,206,6.0,18.0,23,0.00,,,0.00,848.000000,,2013-09-15 21:34:00,
2013-09-15 14:44:00,83.0,41.0,-100.00,SSW,206,6.0,18.0,23,0.00,,,0.00,848.000000,,2013-09-15 21:44:00,
2013-09-15 14:54:00,83.0,41.0,-100.00,SSW,206,6.0,18.0,23,0.00,,,0.00,848.000000,,2013-09-15 21:54:00,
2013-09-15 15:02:00,82.0,43.0,-100.00,SW,233,6.0,16.0,25,0.00,,,0.00,786.000000,,2013-09-15 22:02:00,
2013-09-15 15:23:00,82.0,43.0,-100.00,SW,233,6.0,16.0,25,0.00,,,0.00,786.000000,,2013-09-15 22:23:00,
2013-09-15 15:33:00,82.0,43.0,-100.00,SW,233,6.0,16.0,25,0.00,,,0.00,786.000000,,2013-09-15 22:33:00,
2013-09-15 15:44:00,82.0,43.0,-100.00,SW,233,6.0,16.0,25,0.00,,,0.00,786.000000,,2013-09-15 22:44:00,
2013-09-15 15:53:00,82.0,43.0,-100.00,SW,233,6.0,16.0,25,0.00,,,0.00,786.000000,,2013-09-15 22:53:00,
2013-09-15 16:42:00,81.0,43.0,-100.00,SW,235,5.0,15.0,26,0.00,,,0.00,663.000000,,2013-09-15 23:42:00,
2013-09-15 16:52:00,81.0,43.0,-100.00,SW,235,5.0,15.0,26,0.00,,,0.00,663.000000,,2013-09-15 23:52:00,
2013-09-15 17:01:00,81.0,43.0,-100.00,SW,235,5.0,15.0,26,0.00,,,0.00,663.000000,,2013-09-16 00:01:00,
2013-09-15 17:02:00,80.0,39.0,-100.00,WSW,258,4.0,14.0,23,0.00,,,0.00,503.000000,,2013-09-16 00:02:00,
2013-09-15 17:22:00,80.0,39.0,-100.00,WSW,258,4.0,14.0,23,0.00,,,0.00,503.000000,,2013-09-16 00:22:00,
2013-09-15 17:32:00,80.0,39.0,-100.00,WSW,258,4.0,14.0,23,0.00,,,0.00,503.000000,,2013-09-16 00:32:00,
2013-09-15 17:42:00,80.0,39.0,-100.00,WSW,258,4.0,14.0,23,0.00,,,0.00,503.000000,,2013-09-16 00:42:00,
2013-09-15 17:52:00,80.0,39.0,-100.00,WSW,258,4.0,14.0,23,0.00,,,0.00,503.000000,,2013-09-16 00:52:00,
2013-09-15 18:02:00,75.0,37.0,-100.00,SW,236,4.0,11.0,25,0.00,,,0.00,192.000000,,2013-09-16 01:02:00,
2013-09-15 18:42:00,75.0,37.0,-100.00,SW,236,4.0,11.0,25,0.00,,,0.00,192.000000,,2013-09-16 01:42:00,
2013-09-15 18:52:00,75.0,37.0,-100.00,SW,236,4.0,11.0,25,0.00,,,0.00,192.000000,,2013-09-16 01:52:00,
2013-09-15 19:02:00,67.0,39.0,-100.00,NNE,15,2.0,11.0,36,0.00,,,0.00,17.000000,,2013-09-16 02:02:00,
2013-09-15 19:42:00,67.0,39.0,-100.00,NNE,15,2.0,11.0,36,0.00,,,0.00,17.000000,,2013-09-16 02:42:00,
2013-09-15 19:52:00,67.0,39.0,-100.00,NNE,15,2.0,11.0,36,0.00,,,0.00,17.000000,,2013-09-16 02:52:00,
2013-09-15 20:02:00,61.0,38.0,-100.00,NE,40,0.0,5.0,42,0.00,,,0.00,1.000000,,2013-09-16 03:02:00,
2013-09-15 20:23:00,61.0,38.0,-100.00,NE,40,0.0,5.0,42,0.00,,,0.00,1.000000,,2013-09-16 03:23:00,
2013-09-15 20:34:00,61.0,38.0,-100.00,NE,40,0.0,5.0,42,0.00,,,0.00,1.000000,,2013-09-16 03:34:00,
2013-09-15 20:45:00,61.0,38.0,-100.00,NE,40,0.0,5.0,42,0.00,,,0.00,1.000000,,2013-09-16 03:45:00,
2013-09-15 20:55:00,61.0,38.0,-100.00,NE,40,0.0,5.0,42,0.00,,,0.00,1.000000,,2013-09-16 03:55:00,
2013-09-15 21:02:00,57.0,37.0,-100.00,East,95,1.0,3.0,47,0.00,,,0.00,0.000000,,2013-09-16 04:02:00,
2013-09-15 21:43:00,57.0,37.0,-100.00,East,95,1.0,3.0,47,0.00,,,0.00,0.000000,,2013-09-16 04:43:00,
2013-09-15 21:54:00,57.0,37.0,-100.00,East,95,1.0,3.0,47,0.00,,,0.00,0.000000,,2013-09-16 04:54:00,
2013-09-15 22:02:00,55.0,38.0,-100.00,ENE,70,2.0,3.0,52,0.00,,,0.00,0.000000,,2013-09-16 05:02:00,
2013-09-15 22:44:00,55.0,38.0,-100.00,ENE,70,2.0,3.0,52,0.00,,,0.00,0.000000,,2013-09-16 05:44:00,
2013-09-15 22:53:00,55.0,38.0,-100.00,ENE,70,2.0,3.0,52,0.00,,,0.00,0.000000,,2013-09-16 05:53:00,